Time;durP1;ratioP1;P1;durP2;ratioP2;P2;SDS_P1;SDS_P2;PMS_P1;PMS_P2;Temp;Humidity;BMP_temperature;BMP_pressure;BME280_temperature;BME280_humidity;BME280_pressure;Samples;Min_cycle;Max_cycle;Signal;HPM_P1;HPM_P2
2022/04/07 00:00:39;;;;;;;;;;;;;;;;;;5090468;28;19963;-77
2022/04/07 00:03:06;;;;;;;;;;;;;;;;;;5090197;28;19946;-75
2022/04/07 00:05:33;;;;;;;;;;;;;;;;;;5088883;28;20462;-75
2022/04/07 00:08:00;;;;;;;;;;;;;;;;;;5087569;28;19924;-75
2022/04/07 00:10:27;;;;;;;;;;;;;;;;;;5090668;28;19930;-75
2022/04/07 00:12:54;;;;;;;;;;;;;;;;;;5086681;28;19927;-75
2022/04/07 00:15:21;;;;;;;;;;;;;;;;;;5085000;28;19930;-75
2022/04/07 00:17:48;;;;;;;;;;;;;;;;;;5087275;28;19931;-75
2022/04/07 00:20:16;;;;;;;;;;;;;;;;;;5089151;28;19924;-76
2022/04/07 00:22:43;;;;;;;;;;;;;;;;;;5090946;28;20011;-75
2022/04/07 00:25:10;;;;;;;;;;;;;;;;;;5088323;28;19928;-75
2022/04/07 00:27:37;;;;;;;;;;;;;;;;;;5091665;28;20094;-75
2022/04/07 00:30:04;;;;;;;;;;;;;;;;;;5089548;28;20263;-76
2022/04/07 00:32:31;;;;;;;;;;;;;;;;;;5091443;28;19939;-75
2022/04/07 00:34:58;;;;;;;;;;;;;;;;;;5087484;28;20011;-75
2022/04/07 00:37:25;;;;;;;;;;;;;;;;;;5089320;28;19931;-75
2022/04/07 00:39:52;;;;;;;;;;;;;;;;;;5087758;28;20032;-75
2022/04/07 00:42:19;;;;;;;;;;;;;;;;;;5089886;28;19924;-75
2022/04/07 00:44:46;;;;;;;;;;;;;;;;;;5088865;28;20015;-76
2022/04/07 00:47:13;;;;;;;;;;;;;;;;;;5089590;28;20371;-76
2022/04/07 00:49:39;;;;;;;;;;;;;;;;;;5086078;28;19924;-75
2022/04/07 00:52:06;;;;;;;;;;;;;;;;;;5090150;28;19930;-75
2022/04/07 00:54:33;;;;;;;;;;;;;;;;;;5085208;28;19928;-75
2022/04/07 00:57:00;;;;;;;;;;;;;;;;;;5083280;28;19924;-75
2022/04/07 00:59:27;;;;;;;;;;;;;;;;;;5089282;28;20488;-75
2022/04/07 01:01:54;;;;;;;;;;;;;;;;;;5089219;28;19924;-76
2022/04/07 01:04:21;;;;;;;;;;;;;;;;;;5091158;28;20088;-76
2022/04/07 01:06:48;;;;;;;;;;;;;;;;;;5090105;28;19946;-76
2022/04/07 01:09:15;;;;;;;;;;;;;;;;;;5090733;28;19946;-75
2022/04/07 01:11:42;;;;;;;;;;;;;;;;;;5089171;28;20567;-75
2022/04/07 01:14:09;;;;;;;;;;;;;;;;;;5092166;28;19930;-76
2022/04/07 01:16:36;;;;;;;;;;;;;;;;;;5093348;28;19924;-76
2022/04/07 01:19:03;;;;;;;;;;;;;;;;;;5088374;28;19924;-76
2022/04/07 01:21:31;;;;;;;;;;;;;;;;;;5092036;28;20011;-76
2022/04/07 01:23:58;;;;;;;;;;;;;;;;;;5090823;28;20397;-76
2022/04/07 01:26:24;;;;;;;;;;;;;;;;;;5087928;28;19930;-76
2022/04/07 01:28:51;;;;;;;;;;;;;;;;;;5085776;28;19924;-76
2022/04/07 01:31:18;;;;;;;;;;;;;;;;;;5091453;28;20390;-76
2022/04/07 01:33:45;;;;;;;;;;;;;;;;;;5088158;28;20005;-76
2022/04/07 01:36:12;;;;;;;;;;;;;;;;;;5086522;28;19939;-76
2022/04/07 01:38:39;;;;;;;;;;;;;;;;;;5090705;28;20011;-76
2022/04/07 01:41:06;;;;;;;;;;;;;;;;;;5089497;28;20453;-76
2022/04/07 01:43:33;;;;;;;;;;;;;;;;;;5093215;28;19928;-76
2022/04/07 01:46:00;;;;;;;;;;;;;;;;;;5089604;28;19924;-75
2022/04/07 01:48:27;;;;;;;;;;;;;;;;;;5091777;28;19930;-75
2022/04/07 01:50:54;;;;;;;;;;;;;;;;;;5091089;28;19925;-76
2022/04/07 01:53:21;;;;;;;;;;;;;;;;;;5095666;28;19930;-75
2022/04/07 01:55:48;;;;;;;;;;;;;;;;;;5084699;28;20278;-75
2022/04/07 01:58:16;;;;;;;;;;;;;;;;;;5091169;28;19924;-75
2022/04/07 02:00:43;;;;;;;;;;;;;;;;;;5090019;28;19939;-76
2022/04/07 02:03:10;;;;;;;;;;;;;;;;;;5093574;28;19928;-77
2022/04/07 02:05:37;;;;;;;;;;;;;;;;;;5091570;28;19925;-76
2022/04/07 02:08:04;;;;;;;;;;;;;;;;;;5091466;28;19924;-75
2022/04/07 02:10:32;;;;;;;;;;;;;;;;;;5091151;28;20026;-75
2022/04/07 02:12:59;;;;;;;;;;;;;;;;;;5089290;28;19932;-75
2022/04/07 02:15:26;;;;;;;;;;;;;;;;;;5090972;28;20291;-76
2022/04/07 02:17:53;;;;;;;;;;;;;;;;;;5091278;28;19932;-76
2022/04/07 02:20:20;;;;;;;;;;;;;;;;;;5094176;28;19924;-76
2022/04/07 02:22:47;;;;;;;;;;;;;;;;;;5095937;28;20453;-78
2022/04/07 02:25:14;;;;;;;;;;;;;;;;;;5090215;28;19924;-76
2022/04/07 02:27:41;;;;;;;;;;;;;;;;;;5091912;28;19932;-76
2022/04/07 02:30:08;;;;;;;;;;;;;;;;;;5095162;28;19923;-75
2022/04/07 02:32:34;;;;;;;;;;;;;;;;;;5092683;28;19924;-76
2022/04/07 02:35:01;;;;;;;;;;;;;;;;;;5095601;28;19933;-76
2022/04/07 02:37:28;;;;;;;;;;;;;;;;;;5093538;28;19924;-76
2022/04/07 02:39:55;;;;;;;;;;;;;;;;;;5094410;28;19924;-75
2022/04/07 02:42:22;;;;;;;;;;;;;;;;;;5091198;28;19924;-77
2022/04/07 02:44:49;;;;;;;;;;;;;;;;;;5087265;28;19924;-77
2022/04/07 02:47:17;;;;;;;;;;;;;;;;;;5094548;28;19928;-77
2022/04/07 02:49:44;;;;;;;;;;;;;;;;;;5096652;28;19930;-76
2022/04/07 02:52:11;;;;;;;;;;;;;;;;;;5091696;28;19931;-76
2022/04/07 02:54:38;;;;;;;;;;;;;;;;;;5098219;28;20310;-76
2022/04/07 02:57:05;;;;;;;;;;;;;;;;;;5094463;28;19927;-76
2022/04/07 02:59:31;;;;;;;;;;;;;;;;;;5094031;28;20394;-76
2022/04/07 03:01:58;;;;;;;;;;;;;;;;;;5103401;28;19924;-76
2022/04/07 03:04:25;;;;;;;;;;;;;;;;;;5097346;28;19924;-76
2022/04/07 03:06:52;;;;;;;;;;;;;;;;;;5099716;28;19923;-75
2022/04/07 03:09:19;;;;;;;;;;;;;;;;;;5098416;28;19924;-76
2022/04/07 03:11:47;;;;;;;;;;;;;;;;;;5099230;28;19931;-76
2022/04/07 03:14:14;;;;;;;;;;;;;;;;;;5095811;28;19929;-77
2022/04/07 03:16:41;;;;;;;;;;;;;;;;;;5096155;28;19947;-75
2022/04/07 03:19:08;;;;;;;;;;;;;;;;;;5091991;28;19939;-76
2022/04/07 03:21:35;;;;;;;;;;;;;;;;;;5091603;28;20015;-75
2022/04/07 03:24:01;;;;;;;;;;;;;;;;;;5096853;28;19932;-76
2022/04/07 03:26:28;;;;;;;;;;;;;;;;;;5087604;28;20378;-76
2022/04/07 03:28:55;;;;;;;;;;;;;;;;;;5092914;28;19932;-78
2022/04/07 03:31:22;;;;;;;;;;;;;;;;;;5094719;28;20404;-77
2022/04/07 03:33:49;;;;;;;;;;;;;;;;;;5097288;28;19955;-78
2022/04/07 03:36:19;;;;;;;;;;;;;;;;;;5097851;28;19924;-75
2022/04/07 03:38:48;;;;;;;;;;;;;;;;;;5104760;28;19935;-78
2022/04/07 03:41:15;;;;;;;;;;;;;;;;;;5099543;28;19977;-76
2022/04/07 03:43:42;;;;;;;;;;;;;;;;;;5100001;28;19924;-76
2022/04/07 03:46:11;;;;;;;;;;;;;;;;;;5094540;28;19924;-75
2022/04/07 03:48:37;;;;;;;;;;;;;;;;;;5095808;28;19990;-75
2022/04/07 03:51:05;;;;;;;;;;;;;;;;;;5092836;28;19986;-75
2022/04/07 03:53:32;;;;;;;;;;;;;;;;;;5095758;28;19972;-75
2022/04/07 03:55:59;;;;;;;;;;;;;;;;;;5096462;28;20462;-75
2022/04/07 03:58:29;;;;;;;;;;;;;;;;;;5095452;28;19931;-75
2022/04/07 04:00:56;;;;;;;;;;;;;;;;;;5093911;28;19977;-75
2022/04/07 04:03:23;;;;;;;;;;;;;;;;;;5102296;28;19924;-74
2022/04/07 04:05:50;;;;;;;;;;;;;;;;;;5094524;28;19943;-74
2022/04/07 04:08:17;;;;;;;;;;;;;;;;;;5099805;28;20010;-74
2022/04/07 04:10:44;;;;;;;;;;;;;;;;;;5091499;28;20719;-75
2022/04/07 04:13:11;;;;;;;;;;;;;;;;;;5093297;28;19931;-74
2022/04/07 04:15:38;;;;;;;;;;;;;;;;;;5091884;28;19924;-74
2022/04/07 04:18:05;;;;;;;;;;;;;;;;;;5093833;28;19924;-75
2022/04/07 04:20:32;;;;;;;;;;;;;;;;;;5092112;28;19932;-77
2022/04/07 04:22:59;;;;;;;;;;;;;;;;;;5093038;28;19966;-75
2022/04/07 04:25:26;;;;;;;;;;;;;;;;;;5098768;28;19954;-75
2022/04/07 04:27:54;;;;;;;;;;;;;;;;;;5094888;28;19967;-74
2022/04/07 04:30:22;;;;;;;;;;;;;;;;;;5091214;28;19932;-74
2022/04/07 04:32:49;;;;;;;;;;;;;;;;;;5089670;28;19961;-75
2022/04/07 04:35:16;;;;;;;;;;;;;;;;;;5091634;28;19928;-75
2022/04/07 04:37:43;;;;;;;;;;;;;;;;;;5102192;28;19924;-75
2022/04/07 04:40:10;;;;;;;;;;;;;;;;;;5099251;28;19924;-75
2022/04/07 04:42:40;;;;;;;;;;;;;;;;;;5083065;28;19924;-74
2022/04/07 04:45:07;;;;;;;;;;;;;;;;;;5090944;28;19974;-74
2022/04/07 04:47:34;;;;;;;;;;;;;;;;;;5096635;28;19932;-76
2022/04/07 04:50:01;;;;;;;;;;;;;;;;;;5094574;28;19928;-74
2022/04/07 04:52:28;;;;;;;;;;;;;;;;;;5092915;28;19928;-75
2022/04/07 04:54:55;;;;;;;;;;;;;;;;;;5090515;28;19935;-74
2022/04/07 04:57:22;;;;;;;;;;;;;;;;;;5106057;28;20397;-75
2022/04/07 04:59:49;;;;;;;;;;;;;;;;;;5090778;28;20305;-75
2022/04/07 05:02:16;;;;;;;;;;;;;;;;;;5092032;28;20449;-74
2022/04/07 05:04:43;;;;;;;;;;;;;;;;;;5094269;28;19952;-74
2022/04/07 05:07:10;;;;;;;;;;;;;;;;;;5096305;28;19924;-74
2022/04/07 05:09:38;;;;;;;;;;;;;;;;;;5089798;28;19931;-74
2022/04/07 05:12:05;;;;;;;;;;;;;;;;;;5093126;28;19930;-75
2022/04/07 05:14:32;;;;;;;;;;;;;;;;;;5089796;28;19924;-75
2022/04/07 05:16:59;;;;;;;;;;;;;;;;;;5093775;28;20027;-75
2022/04/07 05:19:26;;;;;;;;;;;;;;;;;;5089634;28;19924;-76
2022/04/07 05:21:53;;;;;;;;;;;;;;;;;;5086724;28;19924;-75
2022/04/07 05:24:20;;;;;;;;;;;;;;;;;;5092639;28;19924;-75
2022/04/07 05:26:47;;;;;;;;;;;;;;;;;;5098663;28;19981;-76
2022/04/07 05:29:14;;;;;;;;;;;;;;;;;;5094701;28;19931;-75
2022/04/07 05:31:41;;;;;;;;;;;;;;;;;;5090546;28;20344;-75
2022/04/07 05:34:08;;;;;;;;;;;;;;;;;;5091206;28;20300;-76
2022/04/07 05:36:35;;;;;;;;;;;;;;;;;;5100506;28;19924;-75
2022/04/07 05:39:02;;;;;;;;;;;;;;;;;;5099260;28;19928;-76
2022/04/07 05:41:29;;;;;;;;;;;;;;;;;;5091493;28;20007;-76
2022/04/07 05:43:56;;;;;;;;;;;;;;;;;;5092481;28;19924;-76
2022/04/07 05:46:23;;;;;;;;;;;;;;;;;;5094824;28;20310;-77
2022/04/07 05:48:52;;;;;;;;;;;;;;;;;;5097604;28;20065;-76
2022/04/07 05:51:18;;;;;;;;;;;;;;;;;;5089190;28;19924;-75
2022/04/07 05:53:45;;;;;;;;;;;;;;;;;;5092714;28;19923;-75
2022/04/07 05:56:12;;;;;;;;;;;;;;;;;;5074982;28;19967;-75
2022/04/07 05:58:39;;;;;;;;;;;;;;;;;;5086446;28;19971;-75
2022/04/07 06:01:06;;;;;;;;;;;;;;;;;;5088428;28;19924;-76
2022/04/07 06:03:34;;;;;;;;;;;;;;;;;;5091130;28;19928;-75
2022/04/07 06:06:01;;;;;;;;;;;;;;;;;;5084168;28;19931;-75
2022/04/07 06:08:28;;;;;;;;;;;;;;;;;;5091427;28;19946;-76
2022/04/07 06:10:55;;;;;;;;;;;;;;;;;;5088688;28;19928;-75
2022/04/07 06:13:22;;;;;;;;;;;;;;;;;;5090330;28;19946;-75
2022/04/07 06:15:49;;;;;;;;;;;;;;;;;;5088284;28;19924;-75
2022/04/07 06:18:16;;;;;;;;;;;;;;;;;;5088210;28;19969;-75
2022/04/07 06:20:46;;;;;;;;;;;;;;;;;;5091782;28;20034;-75
2022/04/07 06:23:13;;;;;;;;;;;;;;;;;;5087897;28;20001;-75
2022/04/07 06:25:40;;;;;;;;;;;;;;;;;;5083128;28;19975;-77
2022/04/07 06:28:07;;;;;;;;;;;;;;;;;;5089208;28;19930;-76
2022/04/07 06:30:34;;;;;;;;;;;;;;;;;;5090191;28;19924;-78
2022/04/07 06:33:01;;;;;;;;;;;;;;;;;;5112233;28;19964;-79
2022/04/07 06:35:28;;;;;;;;;;;;;;;;;;5112524;28;19975;-78
2022/04/07 06:37:56;;;;;;;;;;;;;;;;;;5110765;28;19963;-79
2022/04/07 06:40:22;;;;;;;;;;;;;;;;;;5109844;28;19924;-80
2022/04/07 06:42:49;;;;;;;;;;;;;;;;;;5116417;28;19935;-79
2022/04/07 06:45:16;;;;;;;;;;;;;;;;;;5104172;28;19916;-73
2022/04/07 06:58:26;;;;;;;;;;;;;;;;;;5165319;22;19923;-76
2022/04/07 07:00:53;;;;;;;;;;;;;;;;;;5095560;28;19977;-76
2022/04/07 07:03:19;;;;;;;;;;;;;;;;;;5096194;28;20462;-76
2022/04/07 07:05:46;;;;;;;;;;;;;;;;;;5080589;28;19985;-77
2022/04/07 07:08:14;;;;;;;;;;;;;;;;;;5086186;28;19938;-76
2022/04/07 07:10:41;;;;;;;;;;;;;;;;;;5085128;28;19932;-76
2022/04/07 07:13:08;;;;;;;;;;;;;;;;;;5086297;28;19924;-76
2022/04/07 07:15:35;;;;;;;;;;;;;;;;;;5083687;28;20382;-76
2022/04/07 07:18:02;;;;;;;;;;;;;;;;;;5082140;28;19986;-78
2022/04/07 07:20:29;;;;;;;;;;;;;;;;;;5084942;28;19928;-76
2022/04/07 07:22:56;;;;;;;;;;;;;;;;;;5089140;28;19979;-76
2022/04/07 07:25:23;;;;;;;;;;;;;;;;;;5087095;28;19942;-76
2022/04/07 07:27:50;;;;;;;;;;;;;;;;;;5074659;28;19930;-76
2022/04/07 07:30:17;;;;;;;;;;;;;;;;;;5083365;28;19924;-76
2022/04/07 07:32:44;;;;;;;;;;;;;;;;;;5094206;28;19924;-76
2022/04/07 07:35:11;;;;;;;;;;;;;;;;;;5089273;28;20383;-76
2022/04/07 07:37:38;;;;;;;;;;;;;;;;;;5073599;28;19928;-75
2022/04/07 07:40:05;;;;;;;;;;;;;;;;;;5091204;28;19924;-76
2022/04/07 07:42:32;;;;;;;;;;;;;;;;;;5080252;28;19931;-76
2022/04/07 07:45:02;;;;;;;;;;;;;;;;;;5092466;28;20413;-77
2022/04/07 07:47:29;;;;;;;;;;;;;;;;;;5096842;28;20417;-76
2022/04/07 07:49:56;;;;;;;;;;;;;;;;;;5093476;28;20391;-75
2022/04/07 07:52:23;;;;;;;;;;;;;;;;;;5088858;28;20410;-76
2022/04/07 07:54:50;;;;;;;;;;;;;;;;;;5084271;28;19925;-76
2022/04/07 07:57:17;;;;;;;;;;;;;;;;;;5089209;28;19963;-76
2022/04/07 07:59:44;;;;;;;;;;;;;;;;;;5088394;28;19923;-76
2022/04/07 08:02:11;;;;;;;;;;;;;;;;;;5083766;28;20383;-75
2022/04/07 08:04:38;;;;;;;;;;;;;;;;;;5090533;28;20444;-75
2022/04/07 08:07:05;;;;;;;;;;;;;;;;;;5099139;28;20020;-75
2022/04/07 08:09:32;;;;;;;;;;;;;;;;;;5081921;28;19946;-76
2022/04/07 08:11:59;;;;;;;;;;;;;;;;;;5086313;28;19928;-74
2022/04/07 08:14:26;;;;;;;;;;;;;;;;;;5087291;28;19924;-75
2022/04/07 08:16:52;;;;;;;;;;;;;;;;;;5087527;28;20306;-75
2022/04/07 08:19:20;;;;;;;;;;;;;;;;;;5082415;28;20333;-75
2022/04/07 08:21:47;;;;;;;;;;;;;;;;;;5096125;28;20454;-75
2022/04/07 08:24:16;;;;;;;;;;;;;;;;;;5076520;28;20398;-76
2022/04/07 08:26:43;;;;;;;;;;;;;;;;;;5076170;28;20397;-76
2022/04/07 08:29:10;;;;;;;;;;;;;;;;;;5090291;28;19932;-76
2022/04/07 08:31:37;;;;;;;;;;;;;;;;;;5088137;28;19932;-76
2022/04/07 08:34:04;;;;;;;;;;;;;;;;;;5094747;28;19932;-76
2022/04/07 08:36:31;;;;;;;;;;;;;;;;;;5073483;28;19935;-76
2022/04/07 08:38:58;;;;;;;;;;;;;;;;;;5084953;28;19934;-75
2022/04/07 08:41:27;;;;;;;;;;;;;;;;;;5090661;28;19931;-76
2022/04/07 08:43:54;;;;;;;;;;;;;;;;;;5080434;28;19924;-77
2022/04/07 08:46:21;;;;;;;;;;;;;;;;;;5079142;28;19930;-77
2022/04/07 08:48:48;;;;;;;;;;;;;;;;;;5082546;28;20035;-76
2022/04/07 08:51:15;;;;;;;;;;;;;;;;;;5085391;28;20274;-75
2022/04/07 08:53:42;;;;;;;;;;;;;;;;;;5084273;28;20015;-75
2022/04/07 08:56:10;;;;;;;;;;;;;;;;;;5084096;28;19924;-74
2022/04/07 08:58:37;;;;;;;;;;;;;;;;;;5079108;28;20246;-75
2022/04/07 09:01:05;;;;;;;;;;;;;;;;;;5085399;28;20063;-74
2022/04/07 09:03:31;;;;;;;;;;;;;;;;;;5087957;28;19931;-75
2022/04/07 09:05:58;;;;;;;;;;;;;;;;;;5084446;28;20007;-76
2022/04/07 09:08:25;;;;;;;;;;;;;;;;;;5083876;28;19924;-75
2022/04/07 09:10:52;;;;;;;;;;;;;;;;;;5086176;28;19950;-76
2022/04/07 09:13:19;;;;;;;;;;;;;;;;;;5085179;28;19986;-76
2022/04/07 09:15:46;;;;;;;;;;;;;;;;;;5089340;28;19924;-77
2022/04/07 09:18:13;;;;;;;;;;;;;;;;;;5092077;28;19931;-76
2022/04/07 09:20:41;;;;;;;;;;;;;;;;;;5085411;28;22009;-76
2022/04/07 09:23:08;;;;;;;;;;;;;;;;;;5078425;28;19928;-76
2022/04/07 09:25:35;;;;;;;;;;;;;;;;;;5076935;28;19932;-76
2022/04/07 09:28:02;;;;;;;;;;;;;;;;;;5075654;28;19929;-77
2022/04/07 09:30:29;;;;;;;;;;;;;;;;;;5086249;28;19942;-76
2022/04/07 09:32:56;;;;;;;;;;;;;;;;;;5088639;28;19931;-76
2022/04/07 09:35:24;;;;;;;;;;;;;;;;;;5076748;28;19927;-77
2022/04/07 09:37:51;;;;;;;;;;;;;;;;;;5078848;28;19924;-82
2022/04/07 09:40:18;;;;;;;;;;;;;;;;;;5086711;28;19924;-77
2022/04/07 09:42:45;;;;;;;;;;;;;;;;;;5086318;28;19930;-76
2022/04/07 09:45:12;;;;;;;;;;;;;;;;;;5078917;28;19977;-80
2022/04/07 09:47:39;;;;;;;;;;;;;;;;;;5079540;28;19974;-77
2022/04/07 09:50:06;;;;;;;;;;;;;;;;;;5092847;28;19930;-78
2022/04/07 09:52:33;;;;;;;;;;;;;;;;;;5097461;28;19992;-78
2022/04/07 09:55:00;;;;;;;;;;;;;;;;;;5090885;28;19975;-79
2022/04/07 09:57:27;;;;;;;;;;;;;;;;;;5089188;28;19963;-78
2022/04/07 09:59:54;;;;;;;;;;;;;;;;;;5093488;28;19924;-78
2022/04/07 10:02:22;;;;;;;;;;;;;;;;;;5092078;28;19924;-78
2022/04/07 10:04:49;;;;;;;;;;;;;;;;;;5091051;28;19939;-76
2022/04/07 10:07:16;;;;;;;;;;;;;;;;;;5089272;28;20319;-75
2022/04/07 10:09:46;;;;;;;;;;;;;;;;;;5082449;28;20411;-76
2022/04/07 10:12:13;;;;;;;;;;;;;;;;;;5084107;28;20339;-75
2022/04/07 10:14:46;;;;;;;;;;;;;;;;;;5075814;28;19977;-78
2022/04/07 10:17:14;;;;;;;;;;;;;;;;;;5077489;28;19939;-76
2022/04/07 10:19:41;;;;;;;;;;;;;;;;;;5079679;28;19956;-77
2022/04/07 10:22:12;;;;;;;;;;;;;;;;;;5079706;28;19939;-77
2022/04/07 10:24:39;;;;;;;;;;;;;;;;;;5082351;28;19957;-77
2022/04/07 10:27:06;;;;;;;;;;;;;;;;;;5085638;28;20251;-76
2022/04/07 10:29:34;;;;;;;;;;;;;;;;;;5086815;28;20387;-76
2022/04/07 10:32:01;;;;;;;;;;;;;;;;;;5082055;28;20386;-76
2022/04/07 10:34:31;;;;;;;;;;;;;;;;;;5074772;28;20011;-77
2022/04/07 10:36:58;;;;;;;;;;;;;;;;;;5087951;28;20434;-77
2022/04/07 10:39:26;;;;;;;;;;;;;;;;;;5087520;28;19974;-77
2022/04/07 10:41:53;;;;;;;;;;;;;;;;;;5086321;28;20454;-77
2022/04/07 10:44:21;;;;;;;;;;;;;;;;;;5082921;28;20032;-76
2022/04/07 10:46:48;;;;;;;;;;;;;;;;;;5088948;28;19950;-76
2022/04/07 10:49:17;;;;;;;;;;;;;;;;;;5077702;28;19928;-75
2022/04/07 10:51:44;;;;;;;;;;;;;;;;;;5075032;28;19977;-76
2022/04/07 10:54:11;;;;;;;;;;;;;;;;;;5080293;28;20409;-76
2022/04/07 10:56:39;;;;;;;;;;;;;;;;;;5084075;28;19929;-76
2022/04/07 10:59:07;;;;;;;;;;;;;;;;;;5081808;28;19934;-77
2022/04/07 11:01:34;;;;;;;;;;;;;;;;;;5086293;28;19930;-77
2022/04/07 11:04:01;;;;;;;;;;;;;;;;;;5083312;28;19924;-78
2022/04/07 11:06:28;;;;;;;;;;;;;;;;;;5080862;28;20027;-79
2022/04/07 11:08:55;;;;;;;;;;;;;;;;;;5078000;28;20354;-78
2022/04/07 11:11:22;;;;;;;;;;;;;;;;;;5087553;28;19971;-78
2022/04/07 11:13:50;;;;;;;;;;;;;;;;;;5090735;28;20022;-77
2022/04/07 11:16:17;;;;;;;;;;;;;;;;;;5086279;28;20387;-79
2022/04/07 11:18:44;;;;;;;;;;;;;;;;;;5093924;28;20356;-77
2022/04/07 11:21:11;;;;;;;;;;;;;;;;;;5081393;28;20390;-75
2022/04/07 11:23:38;;;;;;;;;;;;;;;;;;5083949;28;19928;-75
2022/04/07 11:26:06;;;;;;;;;;;;;;;;;;5087507;28;20362;-76
2022/04/07 11:28:37;;;;;;;;;;;;;;;;;;5082660;28;20019;-75
2022/04/07 11:31:04;;;;;;;;;;;;;;;;;;5084949;28;19952;-76
2022/04/07 11:33:31;;;;;;;;;;;;;;;;;;5079082;28;20022;-75
2022/04/07 11:35:58;;;;;;;;;;;;;;;;;;5081279;28;19924;-75
2022/04/07 11:38:25;;;;;;;;;;;;;;;;;;5087054;28;19930;-75
2022/04/07 11:40:52;;;;;;;;;;;;;;;;;;5088267;28;19924;-76
2022/04/07 11:43:19;;;;;;;;;;;;;;;;;;5074671;28;20315;-76
2022/04/07 11:45:46;;;;;;;;;;;;;;;;;;5082180;28;19971;-75
2022/04/07 11:48:13;;;;;;;;;;;;;;;;;;5087564;28;20295;-74
2022/04/07 11:50:40;;;;;;;;;;;;;;;;;;5081312;28;19924;-77
2022/04/07 11:53:07;;;;;;;;;;;;;;;;;;5081119;28;20386;-75
2022/04/07 11:55:34;;;;;;;;;;;;;;;;;;5079577;28;20269;-78
2022/04/07 11:58:01;;;;;;;;;;;;;;;;;;5081867;28;19924;-76
2022/04/07 12:00:28;;;;;;;;;;;;;;;;;;5085563;28;19924;-76
2022/04/07 12:02:55;;;;;;;;;;;;;;;;;;5091915;28;19931;-76
2022/04/07 12:05:22;;;;;;;;;;;;;;;;;;5087995;28;19924;-78
2022/04/07 12:07:49;;;;;;;;;;;;;;;;;;5086063;28;20303;-76
2022/04/07 12:10:16;;;;;;;;;;;;;;;;;;5086837;28;19932;-76
2022/04/07 12:12:43;;;;;;;;;;;;;;;;;;5090810;28;19931;-76
2022/04/07 12:15:10;;;;;;;;;;;;;;;;;;5079804;28;19924;-78
2022/04/07 12:17:37;;;;;;;;;;;;;;;;;;5085673;28;19969;-77
2022/04/07 12:20:05;;;;;;;;;;;;;;;;;;5079624;28;19924;-76
2022/04/07 12:22:32;;;;;;;;;;;;;;;;;;5086413;28;19924;-77
2022/04/07 12:24:59;;;;;;;;;;;;;;;;;;5081509;28;19939;-77
2022/04/07 12:27:26;;;;;;;;;;;;;;;;;;5088212;28;20410;-77
2022/04/07 12:29:53;;;;;;;;;;;;;;;;;;5085053;28;19985;-77
2022/04/07 12:32:20;;;;;;;;;;;;;;;;;;5085473;28;19939;-73
2022/04/07 12:34:47;;;;;;;;;;;;;;;;;;5085680;28;19939;-76
2022/04/07 12:37:14;;;;;;;;;;;;;;;;;;5087320;28;20233;-76
2022/04/07 12:39:42;;;;;;;;;;;;;;;;;;5083347;28;19924;-76
2022/04/07 12:42:09;;;;;;;;;;;;;;;;;;5087999;28;20437;-76
2022/04/07 12:44:36;;;;;;;;;;;;;;;;;;5080726;28;19928;-76
2022/04/07 12:47:04;;;;;;;;;;;;;;;;;;5080970;28;19963;-76
2022/04/07 12:49:32;;;;;;;;;;;;;;;;;;5082841;28;19931;-76
2022/04/07 12:51:59;;;;;;;;;;;;;;;;;;5082379;28;19935;-76
2022/04/07 12:54:26;;;;;;;;;;;;;;;;;;5088549;28;20019;-77
2022/04/07 12:56:58;;;;;;;;;;;;;;;;;;5076222;28;19924;-76
2022/04/07 12:59:25;;;;;;;;;;;;;;;;;;5081317;28;20345;-77
2022/04/07 13:01:57;;;;;;;;;;;;;;;;;;5082431;28;20387;-77
2022/04/07 13:04:24;;;;;;;;;;;;;;;;;;5083631;28;19924;-74
2022/04/07 13:06:54;;;;;;;;;;;;;;;;;;5083108;28;19963;-75
2022/04/07 13:09:21;;;;;;;;;;;;;;;;;;5081735;28;19924;-74
2022/04/07 13:11:48;;;;;;;;;;;;;;;;;;5082695;28;19928;-75
2022/04/07 13:14:15;;;;;;;;;;;;;;;;;;5075441;28;19932;-75
2022/04/07 13:16:44;;;;;;;;;;;;;;;;;;5077392;28;20021;-75
2022/04/07 13:19:11;;;;;;;;;;;;;;;;;;5089366;28;19931;-75
2022/04/07 13:21:39;;;;;;;;;;;;;;;;;;5084387;28;20011;-74
2022/04/07 13:24:06;;;;;;;;;;;;;;;;;;5080542;28;19934;-75
2022/04/07 13:26:34;;;;;;;;;;;;;;;;;;5081595;28;19977;-75
2022/04/07 13:29:01;;;;;;;;;;;;;;;;;;5085984;28;20024;-74
2022/04/07 13:31:28;;;;;;;;;;;;;;;;;;5084395;28;20355;-73
2022/04/07 13:33:55;;;;;;;;;;;;;;;;;;5085491;28;19924;-73
2022/04/07 13:36:22;;;;;;;;;;;;;;;;;;5078765;28;20007;-74
2022/04/07 13:38:49;;;;;;;;;;;;;;;;;;5075671;28;20012;-73
2022/04/07 13:41:16;;;;;;;;;;;;;;;;;;5077090;28;19963;-73
2022/04/07 13:43:43;;;;;;;;;;;;;;;;;;5079753;28;20004;-73
2022/04/07 13:46:09;;;;;;;;;;;;;;;;;;5079680;28;21984;-73
2022/04/07 13:48:37;;;;;;;;;;;;;;;;;;5083590;28;19924;-72
2022/04/07 13:51:04;;;;;;;;;;;;;;;;;;5084470;28;19950;-73
2022/04/07 13:53:31;;;;;;;;;;;;;;;;;;5082084;28;20590;-75
2022/04/07 13:55:58;;;;;;;;;;;;;;;;;;5085978;28;19936;-74
2022/04/07 13:58:25;;;;;;;;;;;;;;;;;;5085425;28;19936;-75
2022/04/07 14:00:52;;;;;;;;;;;;;;;;;;5085612;28;19935;-75
2022/04/07 14:03:19;;;;;;;;;;;;;;;;;;5088698;28;20023;-75
2022/04/07 14:05:47;;;;;;;;;;;;;;;;;;5083140;28;20011;-74
2022/04/07 14:08:16;;;;;;;;;;;;;;;;;;5077198;28;19925;-78
2022/04/07 14:10:43;;;;;;;;;;;;;;;;;;5083869;28;21696;-74
2022/04/07 14:13:10;;;;;;;;;;;;;;;;;;5075993;28;20406;-73
2022/04/07 14:15:38;;;;;;;;;;;;;;;;;;5075082;28;19928;-73
2022/04/07 14:18:05;;;;;;;;;;;;;;;;;;5081078;28;19928;-74
2022/04/07 14:20:32;;;;;;;;;;;;;;;;;;5078700;28;20022;-73
2022/04/07 14:22:59;;;;;;;;;;;;;;;;;;5085418;28;19931;-74
2022/04/07 14:25:26;;;;;;;;;;;;;;;;;;5088543;28;20007;-75
2022/04/07 14:27:53;;;;;;;;;;;;;;;;;;5087420;28;19927;-75
2022/04/07 14:30:20;;;;;;;;;;;;;;;;;;5081555;28;19935;-74
2022/04/07 14:32:48;;;;;;;;;;;;;;;;;;5082555;28;19930;-74
2022/04/07 14:35:15;;;;;;;;;;;;;;;;;;5080072;28;19981;-74
2022/04/07 14:37:42;;;;;;;;;;;;;;;;;;5078355;28;19930;-74
2022/04/07 14:40:09;;;;;;;;;;;;;;;;;;5083018;28;20453;-74
2022/04/07 14:42:36;;;;;;;;;;;;;;;;;;5085424;28;19924;-74
2022/04/07 14:45:03;;;;;;;;;;;;;;;;;;5084161;28;19931;-74
2022/04/07 14:47:30;;;;;;;;;;;;;;;;;;5079940;28;19928;-74
2022/04/07 14:49:57;;;;;;;;;;;;;;;;;;5074208;28;20020;-74
2022/04/07 14:52:24;;;;;;;;;;;;;;;;;;5081032;28;20012;-74
2022/04/07 14:54:52;;;;;;;;;;;;;;;;;;5080010;28;19932;-75
2022/04/07 14:57:19;;;;;;;;;;;;;;;;;;5080380;28;19932;-75
2022/04/07 14:59:46;;;;;;;;;;;;;;;;;;5081483;28;20282;-75
2022/04/07 15:02:16;;;;;;;;;;;;;;;;;;5082906;28;20375;-75
2022/04/07 15:04:43;;;;;;;;;;;;;;;;;;5078355;28;19932;-73
2022/04/07 15:07:10;;;;;;;;;;;;;;;;;;5081548;28;20044;-74
2022/04/07 15:09:37;;;;;;;;;;;;;;;;;;5083147;28;19932;-74
2022/04/07 15:12:04;;;;;;;;;;;;;;;;;;5076406;28;19955;-74
2022/04/07 15:14:31;;;;;;;;;;;;;;;;;;5074932;28;19947;-76
2022/04/07 15:16:58;;;;;;;;;;;;;;;;;;5080877;28;19924;-75
2022/04/07 15:19:25;;;;;;;;;;;;;;;;;;5076415;28;19931;-72
2022/04/07 15:21:52;;;;;;;;;;;;;;;;;;5077427;28;19977;-73
2022/04/07 15:24:19;;;;;;;;;;;;;;;;;;5080704;28;19966;-72
2022/04/07 15:26:46;;;;;;;;;;;;;;;;;;5078941;28;19924;-72
2022/04/07 15:29:13;;;;;;;;;;;;;;;;;;5071717;28;20287;-73
2022/04/07 15:31:40;;;;;;;;;;;;;;;;;;5088182;28;19967;-73
2022/04/07 15:34:07;;;;;;;;;;;;;;;;;;5078350;28;20012;-73
2022/04/07 15:36:34;;;;;;;;;;;;;;;;;;5072190;28;19924;-74
2022/04/07 15:39:01;;;;;;;;;;;;;;;;;;5071157;28;19925;-75
2022/04/07 15:41:28;;;;;;;;;;;;;;;;;;5082044;28;20383;-75
2022/04/07 15:43:57;;;;;;;;;;;;;;;;;;5075835;28;19935;-75
2022/04/07 15:46:24;;;;;;;;;;;;;;;;;;5073832;28;19987;-74
2022/04/07 15:48:57;;;;;;;;;;;;;;;;;;5073938;28;19932;-75
2022/04/07 15:51:24;;;;;;;;;;;;;;;;;;5081648;28;19932;-74
2022/04/07 15:53:51;;;;;;;;;;;;;;;;;;5079035;28;19939;-74
2022/04/07 15:56:19;;;;;;;;;;;;;;;;;;5075989;28;19955;-73
2022/04/07 15:58:46;;;;;;;;;;;;;;;;;;5075631;28;19932;-74
2022/04/07 16:01:13;;;;;;;;;;;;;;;;;;5088486;28;19924;-74
2022/04/07 16:03:40;;;;;;;;;;;;;;;;;;5082297;28;19936;-73
2022/04/07 16:06:06;;;;;;;;;;;;;;;;;;5082640;28;19925;-74
2022/04/07 16:08:34;;;;;;;;;;;;;;;;;;5084036;28;19928;-74
2022/04/07 16:11:00;;;;;;;;;;;;;;;;;;5078679;28;19932;-74
2022/04/07 16:13:27;;;;;;;;;;;;;;;;;;5083313;28;19924;-74
2022/04/07 16:15:54;;;;;;;;;;;;;;;;;;5083449;28;19928;-74
2022/04/07 16:18:21;;;;;;;;;;;;;;;;;;5079309;28;20015;-75
2022/04/07 16:20:48;;;;;;;;;;;;;;;;;;5088653;28;20386;-73
2022/04/07 16:23:16;;;;;;;;;;;;;;;;;;5083121;28;19978;-75
2022/04/07 16:25:45;;;;;;;;;;;;;;;;;;5086641;28;20027;-74
2022/04/07 16:28:12;;;;;;;;;;;;;;;;;;5081064;28;19939;-74
2022/04/07 16:30:41;;;;;;;;;;;;;;;;;;5086520;28;20367;-74
2022/04/07 16:33:11;;;;;;;;;;;;;;;;;;5075319;28;19924;-73
2022/04/07 16:35:38;;;;;;;;;;;;;;;;;;5084967;28;20003;-73
2022/04/07 16:38:05;;;;;;;;;;;;;;;;;;5085876;28;20414;-74
2022/04/07 16:40:32;;;;;;;;;;;;;;;;;;5083483;28;19935;-74
2022/04/07 16:42:59;;;;;;;;;;;;;;;;;;5080074;28;19930;-73
2022/04/07 16:45:28;;;;;;;;;;;;;;;;;;5078920;28;19932;-74
2022/04/07 16:47:55;;;;;;;;;;;;;;;;;;5086713;28;20015;-73
2022/04/07 16:50:22;;;;;;;;;;;;;;;;;;5078398;28;19932;-75
2022/04/07 16:52:49;;;;;;;;;;;;;;;;;;5083690;28;20027;-74
2022/04/07 16:55:16;;;;;;;;;;;;;;;;;;5083866;28;20015;-73